createdAt,value
2023-10-21T00:01:33.261Z,24.59
2023-10-21T00:04:04.510Z,24.58
2023-10-21T00:06:33.924Z,24.58
2023-10-21T00:09:04.141Z,24.57
2023-10-21T00:11:33.749Z,24.55
2023-10-21T00:14:03.418Z,24.56
2023-10-21T00:16:33.910Z,24.58
2023-10-21T00:19:04.746Z,24.55
2023-10-21T00:21:34.190Z,24.55
2023-10-21T00:24:04.658Z,24.54
2023-10-21T00:26:46.036Z,24.54
2023-10-21T00:29:19.617Z,24.51
2023-10-21T00:31:49.240Z,24.51
2023-10-21T00:34:18.777Z,24.50
2023-10-21T00:36:48.324Z,24.49
2023-10-21T00:39:19.148Z,24.49
2023-10-21T00:41:48.547Z,24.52
2023-10-21T00:44:19.151Z,24.53
2023-10-21T00:46:48.606Z,24.55
2023-10-21T00:49:18.128Z,24.55
2023-10-21T00:51:51.043Z,24.57
2023-10-21T00:54:23.278Z,24.54
2023-10-21T00:56:55.295Z,24.58
2023-10-21T00:59:26.285Z,24.56
2023-10-21T01:01:55.837Z,24.55
2023-10-21T01:04:26.933Z,24.53
2023-10-21T01:06:57.752Z,24.53
2023-10-21T01:09:29.038Z,24.54
2023-10-21T01:11:58.569Z,24.52
2023-10-21T01:14:28.843Z,24.50
2023-10-21T01:16:58.865Z,24.49
2023-10-21T01:19:28.833Z,24.51
2023-10-21T01:22:00.862Z,24.53
2023-10-21T01:24:31.417Z,24.53
2023-10-21T01:27:00.997Z,24.51
2023-10-21T01:29:32.390Z,24.50
2023-10-21T01:32:01.094Z,24.50
2023-10-21T01:34:31.133Z,24.48
2023-10-21T01:37:01.130Z,24.48
2023-10-21T01:39:31.048Z,24.48
2023-10-21T01:42:00.632Z,24.46
2023-10-21T01:44:30.554Z,24.47
2023-10-21T01:47:00.434Z,24.49
2023-10-21T01:49:30.374Z,24.49
2023-10-21T01:52:00.723Z,24.47
2023-10-21T01:54:30.554Z,24.47
2023-10-21T01:57:00.212Z,24.46
2023-10-21T01:59:30.224Z,24.45
2023-10-21T03:01:21.043Z,24.25
2023-10-21T03:03:50.634Z,24.21
2023-10-21T03:06:23.169Z,24.19
2023-10-21T03:08:51.877Z,24.17
2023-10-21T03:11:21.329Z,24.15
2023-10-21T03:13:50.875Z,24.15
2023-10-21T03:16:20.564Z,24.11
2023-10-21T03:18:50.426Z,24.14
2023-10-21T03:21:19.943Z,24.12
2023-10-21T03:23:49.440Z,24.13
2023-10-21T03:26:19.009Z,24.11
2023-10-21T03:28:48.610Z,24.09
2023-10-21T03:31:18.660Z,24.10
2023-10-21T03:33:48.162Z,24.09
2023-10-21T03:36:17.722Z,24.04
2023-10-21T03:38:47.251Z,24.00
2023-10-21T03:41:17.016Z,23.99
2023-10-21T03:43:49.193Z,23.98
2023-10-21T03:46:19.015Z,23.94
2023-10-21T03:48:48.581Z,23.91
2023-10-21T03:51:17.516Z,23.90
2023-10-21T03:53:47.988Z,23.90
2023-10-21T03:56:17.897Z,23.88
2023-10-21T03:58:47.910Z,23.87
2023-10-21T04:01:17.408Z,23.86
2023-10-21T04:03:47.039Z,23.84
2023-10-21T04:06:17.919Z,23.80
2023-10-21T04:08:49.353Z,23.79
2023-10-21T04:11:19.489Z,23.79
2023-10-21T04:13:48.852Z,23.80
2023-10-21T04:16:18.774Z,23.77
2023-10-21T04:18:50.112Z,23.75
2023-10-21T04:21:21.036Z,23.70
2023-10-21T04:23:50.661Z,23.68
2023-10-21T04:26:21.375Z,23.66
2023-10-21T04:28:51.637Z,23.66
2023-10-21T04:31:21.235Z,23.63
2023-10-21T04:33:50.994Z,23.61
2023-10-21T04:36:22.567Z,23.60
2023-10-21T04:38:52.174Z,23.62
2023-10-21T04:41:22.154Z,23.62
2023-10-21T04:43:52.487Z,23.63
2023-10-21T04:46:23.617Z,23.62
2023-10-21T04:48:53.262Z,23.62
2023-10-21T04:51:23.283Z,23.62
2023-10-21T04:53:52.927Z,23.60
2023-10-21T04:56:22.916Z,23.59
2023-10-21T04:58:52.422Z,23.59
2023-10-21T05:01:21.915Z,23.60
2023-10-21T05:03:52.601Z,23.61
2023-10-21T05:06:22.305Z,23.55
2023-10-21T05:08:51.113Z,23.56
2023-10-21T05:11:23.236Z,23.59
2023-10-21T05:13:52.629Z,23.63
2023-10-21T05:16:22.130Z,23.63
2023-10-21T05:18:51.356Z,23.62
2023-10-21T05:21:20.980Z,23.65
2023-10-21T05:23:50.618Z,23.66
2023-10-21T05:26:20.713Z,23.70
2023-10-21T05:28:50.362Z,23.73
2023-10-21T05:31:19.958Z,23.72
2023-10-21T05:33:49.492Z,23.74
2023-10-21T05:36:19.884Z,23.77
2023-10-21T05:38:49.334Z,23.80
2023-10-21T05:41:18.946Z,23.84
2023-10-21T05:43:48.326Z,23.88
2023-10-21T05:46:17.863Z,23.92
2023-10-21T05:48:47.393Z,23.95
2023-10-21T05:51:17.839Z,23.99
2023-10-21T05:53:47.931Z,24.05
2023-10-21T05:56:18.025Z,24.10
2023-10-21T05:58:47.502Z,24.17
2023-10-21T06:01:18.049Z,24.20
2023-10-21T06:03:48.445Z,24.27
2023-10-21T06:06:18.883Z,24.31
2023-10-21T06:08:48.507Z,24.36
2023-10-21T06:11:17.978Z,24.43
2023-10-21T06:13:49.362Z,24.49
2023-10-21T06:16:18.839Z,24.54
2023-10-21T06:18:48.380Z,24.61
2023-10-21T06:21:17.978Z,24.64
2023-10-21T06:23:47.490Z,24.70
2023-10-21T06:26:17.429Z,24.77
2023-10-21T06:28:46.864Z,24.82
2023-10-21T06:31:17.196Z,24.89
2023-10-21T06:33:46.792Z,24.94
2023-10-21T06:36:16.322Z,24.98
2023-10-21T06:38:45.067Z,25.05
2023-10-21T06:41:15.075Z,25.11
2023-10-21T06:43:44.898Z,25.15
2023-10-21T06:46:15.304Z,25.22
2023-10-21T06:48:45.540Z,25.27
2023-10-21T06:51:16.189Z,25.32
2023-10-21T06:53:47.373Z,25.36
2023-10-21T06:56:16.748Z,25.40
2023-10-21T06:58:49.562Z,25.45
2023-10-21T07:01:19.892Z,25.51
2023-10-21T07:03:52.345Z,25.55
2023-10-21T07:06:23.799Z,25.60
2023-10-21T07:08:53.333Z,25.65
2023-10-21T07:11:22.830Z,25.71
2023-10-21T07:13:53.616Z,25.80
2023-10-21T07:16:23.158Z,25.87
2023-10-21T07:18:52.743Z,25.95
2023-10-21T07:21:22.437Z,25.97
2023-10-21T07:23:52.105Z,25.87
2023-10-21T07:26:21.962Z,25.89
2023-10-21T07:28:51.970Z,25.98
2023-10-21T07:31:21.715Z,25.88
2023-10-21T07:33:53.835Z,25.75
2023-10-21T07:36:23.385Z,25.62
2023-10-21T07:38:52.221Z,25.54
2023-10-21T07:41:21.913Z,25.45
2023-10-21T07:43:51.394Z,25.38
2023-10-21T07:46:21.469Z,25.32
2023-10-21T07:48:52.910Z,25.25
2023-10-21T07:51:21.655Z,25.21
2023-10-21T07:53:51.899Z,25.18
2023-10-21T07:56:21.521Z,25.16
2023-10-21T07:58:51.346Z,25.26
2023-10-21T08:01:20.851Z,25.33
2023-10-21T08:03:53.307Z,25.40
2023-10-21T08:06:22.874Z,25.54
2023-10-21T08:08:52.310Z,25.62
2023-10-21T08:11:23.115Z,25.60
2023-10-21T08:13:52.617Z,25.59
2023-10-21T08:16:22.027Z,25.57
2023-10-21T08:18:52.171Z,25.53
2023-10-21T08:21:21.991Z,25.54
2023-10-21T08:23:52.413Z,25.54
2023-10-21T08:26:21.272Z,25.57
2023-10-21T08:28:51.358Z,25.87
2023-10-21T08:31:20.928Z,26.17
2023-10-21T08:33:50.539Z,26.41
2023-10-21T08:36:21.423Z,26.64
2023-10-21T08:38:55.637Z,26.93
2023-10-21T08:41:35.278Z,27.20
2023-10-21T08:44:08.460Z,27.37
2023-10-21T08:46:39.225Z,27.54
2023-10-21T08:49:11.414Z,27.74
2023-10-21T08:51:41.086Z,27.94
2023-10-21T08:54:14.075Z,28.11
2023-10-21T08:56:42.959Z,28.20
2023-10-21T08:59:13.522Z,28.23
2023-10-21T09:01:45.084Z,28.30
2023-10-21T09:04:18.985Z,28.37
2023-10-21T09:07:00.752Z,28.41
2023-10-21T09:09:31.632Z,28.53
2023-10-21T09:12:19.345Z,28.66
2023-10-21T09:15:00.506Z,28.81
2023-10-21T09:17:38.104Z,28.85
2023-10-21T09:20:13.077Z,29.02
2023-10-21T09:22:48.180Z,29.22
2023-10-21T09:25:23.352Z,29.28
2023-10-21T09:27:55.909Z,29.45
2023-10-21T09:30:30.826Z,29.64
2023-10-21T09:33:06.150Z,29.77
2023-10-21T09:35:39.839Z,29.85
2023-10-21T09:38:20.512Z,29.64
2023-10-21T09:40:50.827Z,29.29
2023-10-21T09:43:22.486Z,29.05
2023-10-21T09:46:00.566Z,29.00
2023-10-21T09:48:30.657Z,29.06
2023-10-21T09:51:02.081Z,29.17
2023-10-21T09:53:48.987Z,29.16
2023-10-21T09:56:20.311Z,28.98
2023-10-21T09:58:51.491Z,28.67
2023-10-21T10:01:25.079Z,28.39
2023-10-21T10:03:57.278Z,28.20
2023-10-21T10:06:35.000Z,28.10
2023-10-21T10:09:10.374Z,28.03
2023-10-21T10:11:41.594Z,27.97
2023-10-21T10:14:12.913Z,27.84
2023-10-21T10:16:45.545Z,27.75
2023-10-21T10:19:18.666Z,27.64
2023-10-21T10:21:54.057Z,27.63
2023-10-21T10:24:24.352Z,27.66
2023-10-21T10:26:54.528Z,27.64
2023-10-21T10:29:28.052Z,27.64
2023-10-21T10:32:32.947Z,27.59
2023-10-21T10:35:08.093Z,27.51
2023-10-21T10:37:53.420Z,27.48
2023-10-21T10:40:35.207Z,27.45
2023-10-21T10:43:07.711Z,27.39
2023-10-21T10:45:38.432Z,27.33
2023-10-21T10:48:09.060Z,27.32
2023-10-21T10:50:41.394Z,27.33
2023-10-21T10:53:18.495Z,27.36
2023-10-21T10:55:50.640Z,27.39
2023-10-21T10:58:20.492Z,27.41
2023-10-21T11:00:50.084Z,27.35
2023-10-21T11:03:29.203Z,27.29
2023-10-21T11:06:01.337Z,27.28
2023-10-21T11:08:34.304Z,27.21
2023-10-21T11:11:05.682Z,27.19
2023-10-21T11:13:35.139Z,27.18
2023-10-21T11:16:09.642Z,27.12
2023-10-21T11:18:40.945Z,27.03
2023-10-21T11:21:10.629Z,27.00
2023-10-21T11:23:41.016Z,27.00
2023-10-21T11:26:11.462Z,26.99
2023-10-21T11:28:42.120Z,26.96
2023-10-21T11:31:11.707Z,26.88
2023-10-21T11:33:41.459Z,26.83
2023-10-21T11:36:11.969Z,26.76
2023-10-21T11:38:42.102Z,26.78
2023-10-21T11:41:17.449Z,26.75
2023-10-21T11:43:49.728Z,26.71
2023-10-21T11:46:19.492Z,26.57
2023-10-21T11:48:52.141Z,26.51
2023-10-21T11:51:21.871Z,26.45
2023-10-21T11:53:52.207Z,26.39
2023-10-21T11:56:42.920Z,26.32
2023-10-21T11:59:38.260Z,26.26
2023-10-21T12:02:18.140Z,26.24
2023-10-21T12:05:07.445Z,26.22
2023-10-21T12:07:37.504Z,26.22
2023-10-21T12:10:16.649Z,26.23
2023-10-21T12:13:10.256Z,26.24
2023-10-21T12:15:59.432Z,26.23
2023-10-21T12:18:32.281Z,26.24
2023-10-21T12:21:40.713Z,26.29
2023-10-21T12:24:29.428Z,26.30
2023-10-21T12:27:18.479Z,26.31
2023-10-21T12:29:50.747Z,26.35
2023-10-21T12:32:55.602Z,26.35
2023-10-21T12:35:38.292Z,26.27
2023-10-21T12:38:07.782Z,26.25
2023-10-21T12:40:39.229Z,26.23
2023-10-21T12:43:18.683Z,26.20
2023-10-21T12:45:52.153Z,26.17
2023-10-21T12:48:22.900Z,26.13
2023-10-21T12:50:56.371Z,26.11
2023-10-21T12:53:27.521Z,26.09
2023-10-21T12:55:57.330Z,26.05
2023-10-21T12:58:27.503Z,25.96
2023-10-21T13:00:57.078Z,25.87
2023-10-21T13:03:25.995Z,25.84
2023-10-21T13:05:55.717Z,25.84
2023-10-21T13:08:26.122Z,25.88
2023-10-21T13:10:57.672Z,25.90
2023-10-21T13:13:29.693Z,25.79
2023-10-21T13:15:59.581Z,25.74
2023-10-21T13:18:30.208Z,25.72
2023-10-21T13:21:00.243Z,25.67
2023-10-21T13:23:30.259Z,25.67
2023-10-21T13:25:59.092Z,25.65
2023-10-21T13:28:28.973Z,25.62
2023-10-21T13:31:00.277Z,25.56
2023-10-21T13:33:31.180Z,25.48
2023-10-21T13:36:00.553Z,25.49
2023-10-21T13:38:30.429Z,25.50
2023-10-21T13:41:00.607Z,25.55
2023-10-21T13:43:29.222Z,25.53
2023-10-21T13:46:05.029Z,25.49
2023-10-21T13:48:35.683Z,25.48
2023-10-21T13:51:09.312Z,25.46
2023-10-21T13:53:38.934Z,25.47
2023-10-21T13:56:09.890Z,25.45
2023-10-21T13:58:39.299Z,25.43
2023-10-21T14:01:14.424Z,25.41
2023-10-21T14:03:43.849Z,25.40
2023-10-21T14:06:13.667Z,25.39
2023-10-21T14:08:43.100Z,25.29
2023-10-21T14:11:12.713Z,25.21
2023-10-21T14:13:42.173Z,25.19
2023-10-21T14:16:13.622Z,25.27
2023-10-21T14:18:45.212Z,25.41
2023-10-21T14:21:15.261Z,25.56
2023-10-21T14:23:44.739Z,25.66
2023-10-21T14:26:14.336Z,25.68
2023-10-21T14:28:43.988Z,25.63
2023-10-21T14:31:12.763Z,25.70
2023-10-21T14:33:43.676Z,25.77
2023-10-21T14:36:16.153Z,25.84
2023-10-21T14:38:48.460Z,25.86
2023-10-21T14:41:18.153Z,25.87
2023-10-21T14:43:47.577Z,25.84
2023-10-21T14:46:16.730Z,25.70
2023-10-21T14:48:46.770Z,25.48
2023-10-21T14:51:17.788Z,25.33
2023-10-21T14:53:47.775Z,25.31
2023-10-21T14:56:17.404Z,25.28
2023-10-21T14:58:47.080Z,25.21
2023-10-21T15:01:17.489Z,25.14
2023-10-21T15:03:47.191Z,24.94
2023-10-21T15:06:17.221Z,24.58
2023-10-21T15:08:46.556Z,24.36
2023-10-21T15:11:17.700Z,24.23
2023-10-21T15:13:47.139Z,24.17
2023-10-21T15:16:16.722Z,24.06
2023-10-21T15:18:45.745Z,23.98
2023-10-21T15:21:17.187Z,23.88
2023-10-21T15:23:48.041Z,23.75
2023-10-21T15:26:18.406Z,23.63
2023-10-21T15:28:47.911Z,23.49
2023-10-21T15:31:19.135Z,23.41
2023-10-21T15:33:49.432Z,23.24
2023-10-21T15:36:19.703Z,23.10
2023-10-21T15:38:54.302Z,23.02
2023-10-21T15:41:26.825Z,22.94
2023-10-21T15:43:56.832Z,22.80
2023-10-21T15:46:27.259Z,22.66
2023-10-21T15:48:57.931Z,22.47
2023-10-21T15:51:28.600Z,22.29
2023-10-21T15:53:59.782Z,22.12
2023-10-21T15:56:30.293Z,21.97
2023-10-21T15:58:59.720Z,21.69
2023-10-21T16:01:38.870Z,21.38
2023-10-21T16:04:11.733Z,21.29
2023-10-21T16:06:42.288Z,21.24
2023-10-21T16:09:12.196Z,21.21
2023-10-21T16:11:41.987Z,21.16
2023-10-21T16:14:11.386Z,21.05
2023-10-21T16:16:41.442Z,20.94
2023-10-21T16:19:11.190Z,20.88
2023-10-21T16:21:41.927Z,20.86
2023-10-21T16:24:11.851Z,20.71
2023-10-21T16:26:41.459Z,20.65
2023-10-21T16:29:16.652Z,20.62
2023-10-21T16:31:46.164Z,20.56
2023-10-21T16:34:15.669Z,20.50
2023-10-21T16:36:45.306Z,20.45
2023-10-21T16:39:14.856Z,20.37
2023-10-21T16:41:44.259Z,20.35
2023-10-21T16:44:13.024Z,20.29
2023-10-21T16:46:43.723Z,20.23
2023-10-21T16:49:15.225Z,20.14
2023-10-21T16:51:44.892Z,20.01
2023-10-21T16:54:15.362Z,19.94
2023-10-21T16:56:45.178Z,19.90
2023-10-21T16:59:15.034Z,19.84
2023-10-21T17:01:43.854Z,19.81
2023-10-21T17:04:13.454Z,19.80
2023-10-21T17:06:43.104Z,19.76
2023-10-21T17:09:12.644Z,19.71
2023-10-21T17:11:42.233Z,19.64
2023-10-21T17:14:11.722Z,19.56
2023-10-21T17:16:41.360Z,19.44
2023-10-21T17:19:11.235Z,19.28
2023-10-21T17:21:41.679Z,19.19
2023-10-21T17:24:13.944Z,19.16
2023-10-21T17:26:43.419Z,19.12
2023-10-21T17:29:12.959Z,19.10
2023-10-21T17:31:43.884Z,19.02
2023-10-21T17:34:13.434Z,18.94
2023-10-21T17:36:43.491Z,18.87
2023-10-21T17:39:13.384Z,18.83
2023-10-21T17:41:42.075Z,18.82
2023-10-21T17:44:11.630Z,18.77
2023-10-21T17:46:41.791Z,18.71
2023-10-21T17:49:16.460Z,18.69
2023-10-21T17:51:49.138Z,18.66
2023-10-21T17:54:19.108Z,18.64
2023-10-21T17:56:47.904Z,18.60
2023-10-21T17:59:17.396Z,18.54
2023-10-21T18:01:47.577Z,18.51
2023-10-21T18:04:17.385Z,18.45
2023-10-21T18:06:47.475Z,18.40
2023-10-21T18:09:17.038Z,18.32
2023-10-21T18:11:47.028Z,18.25
2023-10-21T18:14:16.511Z,18.21
2023-10-21T18:16:46.064Z,18.16
2023-10-21T18:19:16.163Z,18.10
2023-10-21T18:21:45.724Z,17.98
2023-10-21T18:24:15.356Z,17.89
2023-10-21T18:26:45.064Z,17.83
2023-10-21T18:29:14.575Z,17.73
2023-10-21T18:31:44.130Z,17.60
2023-10-21T18:34:14.140Z,17.53
2023-10-21T18:36:43.632Z,17.50
2023-10-21T18:39:19.563Z,17.47
2023-10-21T18:41:50.766Z,17.40
2023-10-21T18:44:20.300Z,17.33
2023-10-21T18:46:49.964Z,17.30
2023-10-21T18:49:22.185Z,17.21
2023-10-21T18:51:52.165Z,17.19
2023-10-21T18:54:23.173Z,17.20
2023-10-21T18:56:52.303Z,17.11
2023-10-21T18:59:23.115Z,17.00
2023-10-21T19:01:52.622Z,16.94
2023-10-21T19:04:22.455Z,16.93
2023-10-21T19:06:52.077Z,16.92
2023-10-21T20:30:15.116Z,16.01
2023-10-21T20:32:47.719Z,16.01
2023-10-21T20:35:33.906Z,15.99
2023-10-21T20:38:05.578Z,15.97
2023-10-21T20:40:35.194Z,15.95
2023-10-21T20:43:05.218Z,15.93
2023-10-21T20:45:35.282Z,15.89
2023-10-21T20:48:05.632Z,15.85
2023-10-21T20:50:42.591Z,15.84
2023-10-21T20:53:13.085Z,15.84
2023-10-21T20:55:43.001Z,15.81
2023-10-21T20:58:13.315Z,15.81
2023-10-21T21:00:44.492Z,15.81
2023-10-21T21:03:14.906Z,15.80
2023-10-21T21:05:45.419Z,15.76
2023-10-21T21:08:15.907Z,15.73
2023-10-21T21:10:45.937Z,15.70
2023-10-21T21:13:16.798Z,15.66
2023-10-21T21:15:47.422Z,15.61
2023-10-21T21:18:17.940Z,15.57
2023-10-21T21:20:47.564Z,15.54
2023-10-21T21:23:17.410Z,15.51
2023-10-21T21:25:47.274Z,15.47
2023-10-21T21:28:17.865Z,15.44
2023-10-21T21:30:54.981Z,15.38
2023-10-21T21:33:26.365Z,15.31
2023-10-21T21:35:59.670Z,15.20
2023-10-21T21:38:29.318Z,15.14
2023-10-21T21:41:11.094Z,15.14
2023-10-21T21:43:40.645Z,15.14
2023-10-21T21:46:21.142Z,15.10
2023-10-21T21:48:51.578Z,15.06
2023-10-21T21:51:22.021Z,15.04
2023-10-21T21:53:51.428Z,15.01
2023-10-21T21:56:20.869Z,14.98
2023-10-21T21:58:51.723Z,14.97
2023-10-21T22:01:29.868Z,14.96
2023-10-21T22:04:01.239Z,14.95
2023-10-21T22:06:32.470Z,14.95
2023-10-21T22:09:02.330Z,14.97
2023-10-21T22:11:31.966Z,14.97
2023-10-21T22:14:01.196Z,14.95
2023-10-21T22:16:30.987Z,14.93
2023-10-21T22:19:00.404Z,14.91
2023-10-21T22:21:30.061Z,14.90
2023-10-21T22:24:02.375Z,14.90
2023-10-21T22:26:32.111Z,14.87
2023-10-21T22:29:06.056Z,14.84
2023-10-21T22:31:36.237Z,14.80
2023-10-21T22:34:07.343Z,14.77
2023-10-21T22:36:36.751Z,14.74
2023-10-21T22:39:14.471Z,14.67
2023-10-21T22:41:45.748Z,14.61
2023-10-21T22:44:16.115Z,14.57
2023-10-21T22:46:46.148Z,14.55
2023-10-21T22:49:16.656Z,14.51
2023-10-21T22:51:48.011Z,14.44
2023-10-21T22:54:18.748Z,14.35
2023-10-21T22:56:48.840Z,14.24
2023-10-21T22:59:20.242Z,14.14
2023-10-21T23:01:50.642Z,14.03
2023-10-21T23:04:21.057Z,13.97
2023-10-21T23:06:52.394Z,13.91
2023-10-21T23:09:40.132Z,13.82
2023-10-21T23:12:09.577Z,13.76
2023-10-21T23:14:40.570Z,13.73
2023-10-21T23:17:10.853Z,13.75
2023-10-21T23:19:43.355Z,13.76
2023-10-21T23:22:13.724Z,13.73
2023-10-21T23:24:43.216Z,13.73
2023-10-21T23:27:12.727Z,13.71
2023-10-21T23:29:42.257Z,13.67
2023-10-21T23:32:14.216Z,13.62
2023-10-21T23:34:43.683Z,13.57
2023-10-21T23:37:14.061Z,13.56
2023-10-21T23:39:43.763Z,13.55
2023-10-21T23:42:14.318Z,13.54
2023-10-21T23:44:43.789Z,13.54
2023-10-21T23:47:13.294Z,13.52
2023-10-21T23:49:42.765Z,13.49
2023-10-21T23:52:14.324Z,13.45
2023-10-21T23:54:43.771Z,13.43
2023-10-21T23:57:13.249Z,13.41
2023-10-21T23:59:42.662Z,13.38
